Huvudsida
METAR-TAF:

METAR-TAF

Flygplatser :

Girona-Costa Bravas flygplats

Girona, Spanien

latitud: 41-54N, longitud: 002-46E, höjd: 143 m

Aktuellt väderrapport

Denna rapport gjordes för 29 minuter sedan, klockan 05:00 UTC
Vind 1 kt varierande vindriktning
Temperatur 5°C
Fuktighet 100%
Tryck 1013 hPa
Sikt: 1000 m
Få moln på en höjd av 1400 ft
Brutna moln på en höjd av 4200 ft
fuktdis

METAR: LEGE 260500Z VRB01KT 3000 1000 BR FEW014 BKN042 05/05 Q1013

Tid: 06:29 (05:29 UTC)

Väderprognos

Denna rapport gjordes för 6 timmar och 29 minuter sedan, klockan 23:00 UTC
Prognos gäller från 26 kl. 00 UTC till 26 kl. 24 UTC
Vind 5 kt varierande vindriktning
Sikt 10 km eller mer
Få moln på en höjd av 3000 ft
Temporärt
från 26 kl. 00 UTC till 26 kl. 06 UTC
Sikt: 2000 m
Brutna moln på en höjd av 900 ft
fuktdis
Temporärt
från 26 kl. 12 UTC till 26 kl. 15 UTC
Vind 10 kt från ost

TAF: LEGE 252300Z 2600/2624 VRB05KT 9999 FEW030 TX15/2613Z TN06/2606Z TEMPO 2600/2606 2000 BR BKN009 TEMPO 2612/2615 09010KT

Aktuella väderrapporter och prognoser från 4000 flygplatser (METAR- och TAF-rapporter).

De tillgängliga stationerna syns som gula och röda prickar på kartan.

För musen över prickarna för att se namnen på stationerna.

Klicka sedan för att få väderrapporter och prognoser.

För att ändra kartan: Klicka på de gröna knapparna med ett svart kors på för att zooma in; den gröna knappen med ett streck på för att zooma ut; eller på de gröna pilarna för angränsande kartor.


METAR-TAF: